Modern Express — H9DG — position and weather

sailwx.info

Track history (hours):
 
Tides and Currents Weather Stations Pressure Air Temp Water Temp Dewpoint Dewpoint Depression Visibility Wind Speed Wind Dir Waves Ship Positions

Modern Express

Last reported at 2014-Sep-21 21:27 UTC. Time now 2014-Sep-21 22:16 UTC.
Position N 51°16' E 004°13'.

Length 164 m; beam 28 m.

Type: Cargo ship. MMSI: 356187000.

Date/timePositionNaut miles runAvg speedWind from/ knotsBaromVisibWave heightAir tempDewpointWater temp
2014-Sep-21 21:27N 51°16' E 004°13'0 0.0
2014-Sep-21 20:32N 51°16' E 004°13'0 0.0
2014-Sep-21 19:32N 51°16' E 004°13'0 0.0
2014-Sep-21 18:33N 51°16' E 004°13'0 0.0
2014-Sep-21 17:32N 51°16' E 004°13'0 0.0
2014-Sep-21 16:32N 51°16' E 004°13'0 0.0
2014-Sep-21 15:32N 51°16' E 004°13'0 0.0
2014-Sep-21 14:32N 51°16' E 004°13'0 0.0
2014-Sep-21 13:32N 51°16' E 004°13'2 2.2
2014-Sep-21 12:34N 51°16' E 004°17'0 0.0
2014-Sep-21 11:33N 51°16' E 004°17'3 2.9
2014-Sep-21 10:34N 51°19' E 004°16'9 9.3
2014-Sep-21 09:33N 51°23' E 004°03'7 6.5
2014-Sep-21 08:34N 51°21' E 003°53'10 9.8
2014-Sep-21 07:33N 51°26' E 003°39'8 7.8
2014-Sep-21 06:34N 51°25' E 003°27'1312.9
2014-Sep-21 05:33N 51°24' E 003°06'1211.7
2014-Sep-21 04:33N 51°35' E 003°10'8 7.6
2014-Sep-21 03:26N 51°44' E 003°10'2 1.7
2014-Sep-21 02:27N 51°43' E 003°07'1 1.1
2014-Sep-21 01:29N 51°44' E 003°07'6211.4
2014-Sep-20 20:04N 52°43' E 003°39'917.5
2014-Sep-20 19:33N 52°50' E 003°48'1717.4
2014-Sep-20 18:33N 53°02' E 004°09'3216.0
2014-Sep-20 16:33N 53°29' E 004°39'1515.3
2014-Sep-20 15:33N 53°34' E 005°03'1515.5
2014-Sep-20 14:34N 53°39' E 005°27'1616.3
2014-Sep-20 13:33N 53°44' E 005°54'1312.8
2014-Sep-20 12:33N 53°42' E 006°15'1212.5
2014-Sep-20 11:33N 53°36' E 006°34'1817.9
2014-Sep-20 10:33N 53°25' E 006°57'9 9.0
2014-Sep-20 09:31N 53°20' E 007°10'0 0.0
2014-Sep-20 08:31N 53°20' E 007°10'0 0.0
2014-Sep-20 07:31N 53°20' E 007°10'0 0.0
2014-Sep-20 06:31N 53°20' E 007°10'0 0.0
2014-Sep-20 05:31N 53°20' E 007°10'0 0.0
2014-Sep-20 04:31N 53°20' E 007°10'0 0.0
2014-Sep-20 03:31N 53°20' E 007°10'0 0.0
2014-Sep-20 02:31N 53°20' E 007°10'0 0.0
2014-Sep-20 01:32N 53°20' E 007°10'0 0.0
2014-Sep-20 00:32N 53°20' E 007°10'0 0.0
2014-Sep-19 23:32N 53°20' E 007°10'0 0.0
2014-Sep-19 22:32N 53°20' E 007°10'0 0.0
2014-Sep-19 21:33N 53°20' E 007°10'0 0.3
2014-Sep-19 20:34N 53°20' E 007°10'7 7.4
2014-Sep-19 19:34N 53°23' E 006°58'1514.8
2014-Sep-19 18:33N 53°33' E 006°41'1514.9
2014-Sep-19 17:34N 53°38' E 006°17'1212.1
2014-Sep-19 16:33N 53°39' E 005°57'1818.2
2014-Sep-19 15:33N 53°34' E 005°27'1817.6
2014-Sep-19 14:33N 53°28' E 004°60'1716.7
2014-Sep-19 13:33N 53°17' E 004°38'1818.1
2014-Sep-19 12:33N 53°01' E 004°23'1817.6
2014-Sep-19 11:33N 52°46' E 004°08'1817.6
2014-Sep-19 10:33N 52°34' E 003°48'1918.2
2014-Sep-19 09:31N 52°20' E 003°27'5317.9
2014-Sep-19 06:33N 51°40' E 002°30'1717.1
2014-Sep-19 05:33N 51°26' E 002°14'1616.2
2014-Sep-19 04:34N 51°13' E 001°59'1616.1
2014-Sep-19 03:33N 51°02' E 001°40'1615.7
2014-Sep-19 02:32N 50°49' E 001°25'1616.1
2014-Sep-19 01:33N 50°36' E 001°11'1717.0
2014-Sep-19 00:33N 50°27' E 000°48'1717.1
2014-Sep-18 23:32N 50°22' E 000°22'  
Track history (hours):
 
Tides and Currents Weather Stations Pressure Air Temp Water Temp Dewpoint Dewpoint Depression Visibility Wind Speed Wind Dir Waves Ship Positions

Modern Express

Last reported at 2014-Sep-21 21:27 UTC. Time now 2014-Sep-21 22:16 UTC.
Position N 51°16' E 004°13'.

Length 164 m; beam 28 m.

Type: Cargo ship. MMSI: 356187000.

Date/timePositionNaut miles runAvg speedWind from/ knotsBaromVisibWave heightAir tempDewpointWater temp
2014-Sep-21 21:27N 51°16' E 004°13'0 0.0
2014-Sep-21 20:32N 51°16' E 004°13'0 0.0
2014-Sep-21 19:32N 51°16' E 004°13'0 0.0
2014-Sep-21 18:33N 51°16' E 004°13'0 0.0
2014-Sep-21 17:32N 51°16' E 004°13'0 0.0
2014-Sep-21 16:32N 51°16' E 004°13'0 0.0
2014-Sep-21 15:32N 51°16' E 004°13'0 0.0
2014-Sep-21 14:32N 51°16' E 004°13'0 0.0
2014-Sep-21 13:32N 51°16' E 004°13'2 2.2
2014-Sep-21 12:34N 51°16' E 004°17'0 0.0
2014-Sep-21 11:33N 51°16' E 004°17'3 2.9
2014-Sep-21 10:34N 51°19' E 004°16'9 9.3
2014-Sep-21 09:33N 51°23' E 004°03'7 6.5
2014-Sep-21 08:34N 51°21' E 003°53'10 9.8
2014-Sep-21 07:33N 51°26' E 003°39'8 7.8
2014-Sep-21 06:34N 51°25' E 003°27'1312.9
2014-Sep-21 05:33N 51°24' E 003°06'1211.7
2014-Sep-21 04:33N 51°35' E 003°10'8 7.6
2014-Sep-21 03:26N 51°44' E 003°10'2 1.7
2014-Sep-21 02:27N 51°43' E 003°07'1 1.1
2014-Sep-21 01:29N 51°44' E 003°07'6211.4
2014-Sep-20 20:04N 52°43' E 003°39'917.5
2014-Sep-20 19:33N 52°50' E 003°48'1717.4
2014-Sep-20 18:33N 53°02' E 004°09'3216.0
2014-Sep-20 16:33N 53°29' E 004°39'1515.3
2014-Sep-20 15:33N 53°34' E 005°03'1515.5
2014-Sep-20 14:34N 53°39' E 005°27'1616.3
2014-Sep-20 13:33N 53°44' E 005°54'1312.8
2014-Sep-20 12:33N 53°42' E 006°15'1212.5
2014-Sep-20 11:33N 53°36' E 006°34'1817.9
2014-Sep-20 10:33N 53°25' E 006°57'9 9.0
2014-Sep-20 09:31N 53°20' E 007°10'0 0.0
2014-Sep-20 08:31N 53°20' E 007°10'0 0.0
2014-Sep-20 07:31N 53°20' E 007°10'0 0.0
2014-Sep-20 06:31N 53°20' E 007°10'0 0.0
2014-Sep-20 05:31N 53°20' E 007°10'0 0.0
2014-Sep-20 04:31N 53°20' E 007°10'0 0.0
2014-Sep-20 03:31N 53°20' E 007°10'0 0.0
2014-Sep-20 02:31N 53°20' E 007°10'0 0.0
2014-Sep-20 01:32N 53°20' E 007°10'0 0.0
2014-Sep-20 00:32N 53°20' E 007°10'0 0.0
2014-Sep-19 23:32N 53°20' E 007°10'0 0.0
2014-Sep-19 22:32N 53°20' E 007°10'0 0.0
2014-Sep-19 21:33N 53°20' E 007°10'0 0.3
2014-Sep-19 20:34N 53°20' E 007°10'7 7.4
2014-Sep-19 19:34N 53°23' E 006°58'1514.8
2014-Sep-19 18:33N 53°33' E 006°41'1514.9
2014-Sep-19 17:34N 53°38' E 006°17'1212.1
2014-Sep-19 16:33N 53°39' E 005°57'1818.2
2014-Sep-19 15:33N 53°34' E 005°27'1817.6
2014-Sep-19 14:33N 53°28' E 004°60'1716.7
2014-Sep-19 13:33N 53°17' E 004°38'1818.1
2014-Sep-19 12:33N 53°01' E 004°23'1817.6
2014-Sep-19 11:33N 52°46' E 004°08'1817.6
2014-Sep-19 10:33N 52°34' E 003°48'1918.2
2014-Sep-19 09:31N 52°20' E 003°27'5317.9
2014-Sep-19 06:33N 51°40' E 002°30'1717.1
2014-Sep-19 05:33N 51°26' E 002°14'1616.2
2014-Sep-19 04:34N 51°13' E 001°59'1616.1
2014-Sep-19 03:33N 51°02' E 001°40'1615.7
2014-Sep-19 02:32N 50°49' E 001°25'1616.1
2014-Sep-19 01:33N 50°36' E 001°11'1717.0
2014-Sep-19 00:33N 50°27' E 000°48'1717.1
2014-Sep-18 23:32N 50°22' E 000°22'  

Dump ship's entire track history